createdAt,value
2022-10-25T00:01:47.343Z,15.80
2022-10-25T00:03:49.414Z,15.80
2022-10-25T00:05:51.391Z,15.80
2022-10-25T00:07:53.171Z,15.80
2022-10-25T00:09:55.014Z,15.80
2022-10-25T00:11:57.605Z,15.90
2022-10-25T00:14:02.547Z,15.80
2022-10-25T00:16:04.950Z,15.90
2022-10-25T00:18:06.688Z,15.80
2022-10-25T00:20:11.306Z,15.80
2022-10-25T00:22:13.047Z,15.80
2022-10-25T00:24:15.334Z,15.80
2022-10-25T00:26:17.763Z,15.80
2022-10-25T00:28:19.410Z,15.80
2022-10-25T00:30:21.104Z,15.80
2022-10-25T00:32:23.115Z,15.80
2022-10-25T00:34:24.965Z,15.80
2022-10-25T00:36:27.431Z,15.80
2022-10-25T00:38:30.182Z,15.80
2022-10-25T00:40:32.025Z,15.80
2022-10-25T00:42:33.780Z,15.70
2022-10-25T00:44:50.899Z,15.70
2022-10-25T00:46:53.807Z,15.70
2022-10-25T00:49:05.666Z,15.60
2022-10-25T00:51:10.854Z,15.70
2022-10-25T00:53:18.675Z,15.70
2022-10-25T00:55:24.369Z,15.70
2022-10-25T00:57:34.809Z,15.60
2022-10-25T00:59:37.453Z,15.60
2022-10-25T01:01:39.474Z,15.60
2022-10-25T01:03:43.930Z,15.60
2022-10-25T01:05:46.792Z,15.60
2022-10-25T01:07:48.838Z,15.50
2022-10-25T01:09:51.552Z,15.50
2022-10-25T01:11:53.823Z,15.50
2022-10-25T01:13:56.604Z,15.50
2022-10-25T01:16:21.665Z,15.50
2022-10-25T01:18:49.674Z,15.50
2022-10-25T01:21:03.565Z,15.50
2022-10-25T01:23:32.778Z,15.40
2022-10-25T01:26:02.779Z,15.50
2022-10-25T01:28:12.884Z,15.40
2022-10-25T01:30:24.793Z,15.40
2022-10-25T01:32:57.219Z,15.40
2022-10-25T01:35:06.860Z,15.40
2022-10-25T01:37:16.314Z,15.40
2022-10-25T01:39:20.577Z,15.40
2022-10-25T01:41:58.680Z,15.40
2022-10-25T01:44:28.897Z,15.30
2022-10-25T01:47:05.164Z,15.40
2022-10-25T01:49:12.075Z,15.40
2022-10-25T01:51:16.495Z,15.30
2022-10-25T01:53:18.242Z,15.30
2022-10-25T01:55:22.379Z,15.30
2022-10-25T01:57:52.982Z,15.40
2022-10-25T02:00:11.255Z,15.30
2022-10-25T02:02:24.674Z,15.30
2022-10-25T02:04:53.692Z,15.30
2022-10-25T02:06:59.402Z,15.30
2022-10-25T02:09:13.954Z,15.30
2022-10-25T02:11:28.264Z,15.30
2022-10-25T02:13:49.846Z,15.30
2022-10-25T02:16:15.373Z,15.30
2022-10-25T02:18:21.874Z,15.30
2022-10-25T02:20:25.960Z,15.60
2022-10-25T02:22:31.717Z,15.30
2022-10-25T02:24:34.812Z,15.30
2022-10-25T02:26:37.934Z,15.40
2022-10-25T02:28:41.042Z,15.40
2022-10-25T02:30:44.246Z,15.40
2022-10-25T02:32:45.954Z,15.40
2022-10-25T02:34:49.112Z,15.40
2022-10-25T02:36:53.214Z,15.40
2022-10-25T02:38:58.434Z,15.40
2022-10-25T02:41:03.415Z,15.50
2022-10-25T02:43:05.223Z,15.50
2022-10-25T02:45:07.782Z,15.50
2022-10-25T02:47:10.307Z,15.50
2022-10-25T02:49:12.759Z,15.50
2022-10-25T02:51:15.468Z,15.50
2022-10-25T02:53:17.420Z,15.50
2022-10-25T02:55:20.234Z,15.50
2022-10-25T02:57:23.645Z,15.60
2022-10-25T02:59:25.441Z,15.50
2022-10-25T03:01:27.444Z,15.60
2022-10-25T03:03:29.408Z,15.60
2022-10-25T03:05:31.358Z,15.60
2022-10-25T03:07:33.049Z,15.60
2022-10-25T03:09:35.060Z,15.60
2022-10-25T03:11:36.765Z,15.60
2022-10-25T03:13:38.907Z,15.60
2022-10-25T03:15:40.906Z,15.60
2022-10-25T03:17:42.822Z,15.60
2022-10-25T03:19:44.556Z,15.60
2022-10-25T03:21:46.279Z,15.50
2022-10-25T03:23:48.000Z,15.50
2022-10-25T03:25:57.704Z,15.50
2022-10-25T03:28:03.726Z,15.60
2022-10-25T03:30:06.180Z,15.50
2022-10-25T03:32:07.961Z,15.50
2022-10-25T03:34:09.729Z,15.50
2022-10-25T03:36:11.526Z,15.50
2022-10-25T03:38:13.250Z,15.50
2022-10-25T03:40:15.183Z,15.50
2022-10-25T03:42:17.111Z,15.50
2022-10-25T03:44:23.388Z,15.50
2022-10-25T03:46:25.163Z,15.50
2022-10-25T03:48:27.251Z,15.50
2022-10-25T03:50:29.010Z,15.50
2022-10-25T03:52:30.803Z,15.50
2022-10-25T03:54:32.821Z,15.50
2022-10-25T03:56:34.800Z,15.60
2022-10-25T03:58:36.469Z,15.50
2022-10-25T04:00:38.730Z,15.60
2022-10-25T04:02:40.820Z,15.50
2022-10-25T04:04:42.505Z,15.50
2022-10-25T04:06:44.230Z,15.50
2022-10-25T04:08:45.940Z,15.50
2022-10-25T04:10:47.845Z,15.50
2022-10-25T04:12:53.473Z,15.50
2022-10-25T04:14:56.209Z,15.50
2022-10-25T04:16:58.191Z,15.50
2022-10-25T04:18:59.907Z,15.50
2022-10-25T04:21:01.947Z,15.50
2022-10-25T04:23:04.791Z,15.50
2022-10-25T04:25:08.165Z,15.50
2022-10-25T04:27:09.968Z,15.50
2022-10-25T04:29:12.019Z,15.50
2022-10-25T04:31:13.756Z,15.50
2022-10-25T04:33:15.791Z,15.50
2022-10-25T04:35:17.667Z,15.50
2022-10-25T04:37:19.465Z,15.50
2022-10-25T04:39:21.455Z,15.50
2022-10-25T04:41:23.509Z,15.50
2022-10-25T04:43:26.786Z,15.50
2022-10-25T04:45:32.070Z,15.60
2022-10-25T04:47:35.078Z,15.60
2022-10-25T04:49:36.893Z,15.60
2022-10-25T04:51:38.948Z,15.60
2022-10-25T04:53:41.239Z,15.60
2022-10-25T04:55:43.208Z,15.60
2022-10-25T04:57:44.957Z,15.60
2022-10-25T04:59:46.654Z,15.60
2022-10-25T05:01:48.509Z,15.60
2022-10-25T05:03:50.619Z,15.60
2022-10-25T05:05:52.839Z,15.60
2022-10-25T05:07:56.590Z,15.60
2022-10-25T05:09:58.609Z,15.50
2022-10-25T05:12:00.501Z,15.50
2022-10-25T05:14:02.495Z,15.50
2022-10-25T05:16:04.731Z,15.50
2022-10-25T05:18:06.550Z,15.50
2022-10-25T05:20:08.830Z,15.50
2022-10-25T05:22:10.941Z,15.50
2022-10-25T05:24:12.741Z,15.50
2022-10-25T05:26:20.200Z,15.50
2022-10-25T05:28:22.311Z,15.50
2022-10-25T05:30:24.186Z,15.50
2022-10-25T05:32:26.556Z,15.60
2022-10-25T05:34:28.348Z,15.60
2022-10-25T05:36:30.303Z,15.50
2022-10-25T05:38:36.985Z,15.60
2022-10-25T05:40:40.117Z,15.60
2022-10-25T05:42:41.994Z,15.60
2022-10-25T05:44:44.748Z,15.60
2022-10-25T05:46:46.523Z,15.60
2022-10-25T05:48:49.438Z,15.60
2022-10-25T05:50:59.271Z,15.60
2022-10-25T05:53:10.231Z,15.60
2022-10-25T05:55:12.241Z,15.60
2022-10-25T05:57:16.070Z,15.60
2022-10-25T05:59:18.097Z,15.60
2022-10-25T06:01:23.312Z,15.70
2022-10-25T06:03:25.116Z,15.70
2022-10-25T06:05:26.822Z,15.70
2022-10-25T06:07:31.953Z,15.70
2022-10-25T06:09:33.636Z,15.70
2022-10-25T06:11:37.873Z,15.70
2022-10-25T06:13:40.151Z,15.70
2022-10-25T06:15:42.298Z,15.70
2022-10-25T06:17:44.020Z,15.70
2022-10-25T06:19:46.947Z,15.70
2022-10-25T06:21:48.685Z,15.70
2022-10-25T06:23:51.243Z,15.80
2022-10-25T06:25:53.169Z,15.70
2022-10-25T06:27:54.891Z,15.70
2022-10-25T06:29:56.677Z,15.70
2022-10-25T06:31:58.400Z,15.70
2022-10-25T06:34:01.814Z,15.70
2022-10-25T06:36:05.408Z,15.70
2022-10-25T06:38:07.103Z,15.70
2022-10-25T06:40:09.636Z,15.70
2022-10-25T06:42:14.536Z,15.60
2022-10-25T06:44:16.378Z,15.70
2022-10-25T06:46:27.050Z,15.60
2022-10-25T06:48:29.271Z,15.70
2022-10-25T06:50:31.263Z,15.70
2022-10-25T06:52:33.109Z,15.70
2022-10-25T06:54:35.895Z,15.70
2022-10-25T06:56:38.734Z,15.70
2022-10-25T06:58:40.831Z,15.70
2022-10-25T07:00:46.015Z,15.70
2022-10-25T07:02:58.080Z,15.70
2022-10-25T07:05:00.116Z,15.80
2022-10-25T07:07:04.418Z,15.70
2022-10-25T07:09:08.713Z,15.80
2022-10-25T07:11:15.570Z,15.80
2022-10-25T07:13:17.397Z,15.80
2022-10-25T07:17:25.972Z,15.80
2022-10-25T07:19:27.713Z,15.80
2022-10-25T07:21:31.473Z,15.80
2022-10-25T07:23:34.715Z,15.80
2022-10-25T07:25:36.490Z,15.80
2022-10-25T07:27:38.413Z,15.80
2022-10-25T07:29:40.574Z,15.80
2022-10-25T07:31:44.404Z,15.90
2022-10-25T07:33:46.543Z,15.90
2022-10-25T07:36:06.244Z,15.90
2022-10-25T07:38:12.198Z,15.90
2022-10-25T07:40:14.004Z,16.00
2022-10-25T07:42:15.866Z,15.90
2022-10-25T07:44:22.594Z,15.90
2022-10-25T07:46:26.497Z,15.90
2022-10-25T07:48:28.374Z,15.90
2022-10-25T07:50:30.666Z,15.90
2022-10-25T07:52:32.711Z,15.90
2022-10-25T07:54:34.821Z,16.00
2022-10-25T07:56:36.920Z,16.00
2022-10-25T07:58:38.604Z,16.00
2022-10-25T08:00:40.329Z,16.00
2022-10-25T08:02:42.753Z,16.00
2022-10-25T08:04:44.566Z,16.00
2022-10-25T08:06:46.292Z,16.10
2022-10-25T08:08:48.602Z,16.10
2022-10-25T08:10:50.779Z,16.10
2022-10-25T08:12:55.728Z,16.10
2022-10-25T08:14:57.520Z,16.10
2022-10-25T08:16:59.307Z,16.10
2022-10-25T08:19:01.680Z,16.10
2022-10-25T08:21:04.990Z,16.10
2022-10-25T08:23:07.095Z,16.10
2022-10-25T08:25:09.472Z,16.10
2022-10-25T08:27:11.411Z,16.10
2022-10-25T08:29:14.172Z,16.10
2022-10-25T08:31:17.300Z,16.10
2022-10-25T08:33:19.136Z,16.20
2022-10-25T08:35:21.306Z,16.10
2022-10-25T08:37:23.093Z,16.20
2022-10-25T08:39:25.210Z,16.20
2022-10-25T08:41:40.252Z,16.20
2022-10-25T08:44:06.060Z,16.20
2022-10-25T08:46:22.167Z,16.30
2022-10-25T08:48:35.154Z,16.30
2022-10-25T08:50:42.403Z,16.20
2022-10-25T08:52:50.956Z,16.30
2022-10-25T08:54:53.225Z,16.20
2022-10-25T08:57:16.830Z,16.20
2022-10-25T08:59:27.489Z,16.30
2022-10-25T09:01:44.905Z,16.20
2022-10-25T09:03:48.730Z,16.30
2022-10-25T09:06:25.924Z,16.30
2022-10-25T09:09:00.943Z,16.30
2022-10-25T09:11:20.732Z,16.30
2022-10-25T09:13:29.972Z,16.40
2022-10-25T09:16:01.499Z,16.30
2022-10-25T09:18:14.172Z,16.40
2022-10-25T09:20:27.066Z,16.30
2022-10-25T09:22:31.849Z,16.40
2022-10-25T09:24:45.099Z,16.40
2022-10-25T09:26:55.955Z,16.40
2022-10-25T09:29:15.246Z,16.50
2022-10-25T09:31:22.547Z,16.50
2022-10-25T09:33:30.678Z,16.50
2022-10-25T09:35:42.611Z,16.60
2022-10-25T09:37:49.817Z,16.60
2022-10-25T09:39:56.461Z,16.60
2022-10-25T09:41:59.365Z,16.60
2022-10-25T09:44:03.393Z,16.70
2022-10-25T09:46:13.989Z,16.70
2022-10-25T09:48:22.949Z,16.70
2022-10-25T09:50:39.775Z,16.70
2022-10-25T09:53:17.584Z,16.70
2022-10-25T09:55:57.549Z,16.80
2022-10-25T09:58:00.294Z,16.90
2022-10-25T10:00:02.194Z,16.80
2022-10-25T10:02:24.350Z,16.80
2022-10-25T10:04:36.613Z,16.90
2022-10-25T10:06:40.232Z,16.80
2022-10-25T10:08:49.691Z,16.80
2022-10-25T10:10:53.302Z,16.80
2022-10-25T10:13:33.247Z,16.80
2022-10-25T10:15:44.239Z,16.90
2022-10-25T10:17:46.973Z,16.90
2022-10-25T10:20:11.260Z,16.90
2022-10-25T10:22:17.400Z,16.90
2022-10-25T10:24:31.316Z,16.90
2022-10-25T10:26:43.339Z,17.00
2022-10-25T10:28:47.726Z,17.00
2022-10-25T10:30:57.761Z,16.90
2022-10-25T10:33:01.327Z,16.90
2022-10-25T10:35:06.738Z,16.90
2022-10-25T10:37:21.997Z,16.90
2022-10-25T10:39:25.220Z,16.90
2022-10-25T10:41:30.988Z,16.80
2022-10-25T10:43:34.255Z,16.80
2022-10-25T10:45:36.478Z,16.80
2022-10-25T10:47:53.524Z,16.80
2022-10-25T10:49:55.284Z,16.80
2022-10-25T10:51:57.058Z,16.80
2022-10-25T10:54:00.612Z,16.70
2022-10-25T10:56:07.165Z,16.70
2022-10-25T10:58:34.311Z,16.80
2022-10-25T11:00:36.291Z,16.90
2022-10-25T11:02:41.345Z,16.90
2022-10-25T11:04:51.820Z,16.90
2022-10-25T11:06:54.491Z,16.90
2022-10-25T11:09:21.978Z,17.00
2022-10-25T11:11:24.678Z,17.10
2022-10-25T11:13:28.297Z,17.20
2022-10-25T11:15:41.846Z,17.30
2022-10-25T11:17:58.348Z,17.30
2022-10-25T11:20:08.946Z,17.50
2022-10-25T11:22:32.899Z,17.50
2022-10-25T11:24:44.739Z,17.70
2022-10-25T11:26:56.018Z,17.80
2022-10-25T11:29:27.268Z,17.90
2022-10-25T11:31:37.794Z,18.00
2022-10-25T11:33:58.156Z,18.00
2022-10-25T11:36:32.009Z,18.10
2022-10-25T11:38:36.336Z,18.20
2022-10-25T11:41:04.251Z,18.30
2022-10-25T11:43:40.687Z,18.40
2022-10-25T11:45:50.270Z,18.50
2022-10-25T11:48:28.907Z,18.50
2022-10-25T11:50:39.686Z,18.50
2022-10-25T11:53:03.886Z,18.50
2022-10-25T11:55:14.347Z,18.50
2022-10-25T11:57:34.832Z,18.40
2022-10-25T12:00:07.321Z,18.30
2022-10-25T12:02:47.273Z,18.20
2022-10-25T12:04:58.630Z,18.20
2022-10-25T12:07:46.743Z,18.10
2022-10-25T12:10:14.984Z,18.00
2022-10-25T12:12:25.111Z,18.00
2022-10-25T12:14:34.492Z,18.00
2022-10-25T12:16:36.895Z,18.00
2022-10-25T12:18:43.513Z,18.10
2022-10-25T12:20:47.036Z,18.10
2022-10-25T12:22:52.066Z,18.10
2022-10-25T12:25:18.167Z,18.20
2022-10-25T12:27:22.524Z,18.20
2022-10-25T12:29:35.933Z,18.10
2022-10-25T12:31:54.291Z,18.20
2022-10-25T12:34:08.077Z,18.20
2022-10-25T12:36:30.828Z,18.20
2022-10-25T12:38:39.257Z,18.30
2022-10-25T12:40:47.547Z,18.20
2022-10-25T12:43:21.150Z,18.20
2022-10-25T12:45:41.261Z,18.20
2022-10-25T12:47:54.000Z,18.20
2022-10-25T12:50:23.167Z,18.20
2022-10-25T12:52:32.530Z,18.10
2022-10-25T12:54:39.824Z,18.10
2022-10-25T12:57:09.789Z,18.10
2022-10-25T12:59:45.971Z,18.20
2022-10-25T13:01:47.718Z,18.10
2022-10-25T13:04:06.248Z,18.00
2022-10-25T13:06:28.308Z,18.00
2022-10-25T13:08:32.346Z,18.10
2022-10-25T13:10:44.457Z,18.00
2022-10-25T13:13:17.099Z,18.00
2022-10-25T13:15:19.816Z,18.00
2022-10-25T13:17:23.087Z,18.00
2022-10-25T13:19:53.581Z,18.00
2022-10-25T13:21:54.185Z,18.00
2022-10-25T13:23:59.558Z,18.00
2022-10-25T13:26:07.821Z,17.90
2022-10-25T13:28:15.568Z,18.00
2022-10-25T13:30:26.692Z,18.00
2022-10-25T13:32:31.155Z,18.00
2022-10-25T13:34:37.052Z,18.00
2022-10-25T13:36:54.845Z,18.00
2022-10-25T13:39:05.364Z,18.00
2022-10-25T13:41:12.750Z,18.00
2022-10-25T13:43:20.601Z,18.00
2022-10-25T13:45:34.525Z,18.00
2022-10-25T13:47:51.106Z,18.00
2022-10-25T13:49:53.171Z,18.10
2022-10-25T13:51:57.631Z,18.10
2022-10-25T13:54:07.167Z,18.10
2022-10-25T13:56:22.759Z,18.10
2022-10-25T13:58:32.277Z,18.20
2022-10-25T14:00:38.296Z,18.20
2022-10-25T14:03:03.395Z,18.20
2022-10-25T14:05:05.165Z,18.30
2022-10-25T14:07:45.164Z,18.40
2022-10-25T14:10:54.126Z,18.40
2022-10-25T14:13:04.583Z,18.50
2022-10-25T14:15:52.327Z,18.50
2022-10-25T14:17:57.087Z,18.50
2022-10-25T14:20:16.991Z,18.50
2022-10-25T14:22:37.799Z,18.50
2022-10-25T14:24:42.223Z,18.50
2022-10-25T14:26:55.258Z,18.40
2022-10-25T14:29:18.823Z,18.40
2022-10-25T14:31:21.901Z,18.50
2022-10-25T14:33:45.913Z,18.40
2022-10-25T14:36:12.284Z,18.40
2022-10-25T14:38:26.108Z,18.40
2022-10-25T14:40:30.824Z,18.40
2022-10-25T14:42:33.423Z,18.40
2022-10-25T14:44:47.253Z,18.50
2022-10-25T14:46:49.314Z,18.60
2022-10-25T14:48:56.189Z,18.70
2022-10-25T14:51:03.940Z,18.70
2022-10-25T14:53:15.473Z,18.80
2022-10-25T14:55:32.899Z,18.80
2022-10-25T14:57:36.320Z,18.90
2022-10-25T14:59:48.138Z,19.00
2022-10-25T15:02:02.301Z,19.00
2022-10-25T15:04:04.378Z,19.10
2022-10-25T15:06:06.380Z,19.10
2022-10-25T15:08:19.197Z,19.10
2022-10-25T15:10:42.620Z,19.20
2022-10-25T15:12:51.839Z,19.20
2022-10-25T15:14:55.210Z,19.10
2022-10-25T15:17:17.123Z,19.10
2022-10-25T15:19:20.694Z,19.10
2022-10-25T15:21:22.418Z,19.00
2022-10-25T15:23:24.290Z,19.00
2022-10-25T15:25:26.122Z,19.00
2022-10-25T15:27:32.514Z,18.90
2022-10-25T15:31:49.097Z,18.90
2022-10-25T15:33:59.634Z,18.80
2022-10-25T15:36:04.078Z,18.80
2022-10-25T15:38:10.875Z,18.70
2022-10-25T15:40:15.885Z,18.70
2022-10-25T15:42:18.555Z,18.70
2022-10-25T15:44:20.321Z,18.60
2022-10-25T15:46:29.663Z,18.60
2022-10-25T15:48:31.815Z,18.60
2022-10-25T15:50:33.928Z,18.60
2022-10-25T15:52:35.719Z,18.50
2022-10-25T15:54:37.535Z,18.50
2022-10-25T15:56:39.472Z,18.50
2022-10-25T15:58:41.237Z,18.50
2022-10-25T16:00:43.956Z,18.50
2022-10-25T16:02:46.678Z,18.50
2022-10-25T16:04:49.654Z,18.50
2022-10-25T16:06:51.720Z,18.50
2022-10-25T16:08:53.655Z,18.40
2022-10-25T16:10:56.145Z,18.40
2022-10-25T16:13:06.684Z,18.40
2022-10-25T16:15:14.133Z,18.30
2022-10-25T16:17:16.250Z,18.30
2022-10-25T16:19:20.209Z,18.30
2022-10-25T16:21:22.110Z,18.30
2022-10-25T16:23:27.343Z,18.20
2022-10-25T16:25:32.824Z,18.20
2022-10-25T16:27:37.208Z,18.20
2022-10-25T16:29:39.053Z,18.10
2022-10-25T16:31:40.935Z,18.10
2022-10-25T16:33:42.797Z,18.00
2022-10-25T16:35:44.594Z,18.00
2022-10-25T16:37:47.234Z,17.90
2022-10-25T16:39:49.267Z,17.90
2022-10-25T16:41:51.666Z,17.80
2022-10-25T16:43:53.382Z,17.80
2022-10-25T16:45:55.202Z,17.70
2022-10-25T16:47:57.967Z,17.60
2022-10-25T16:49:59.787Z,17.60
2022-10-25T16:52:02.041Z,17.50
2022-10-25T16:54:04.406Z,17.50
2022-10-25T16:56:08.342Z,17.50
2022-10-25T16:58:11.451Z,17.40
2022-10-25T17:00:14.978Z,17.40
2022-10-25T17:02:20.148Z,17.30
2022-10-25T17:04:25.112Z,17.30
2022-10-25T17:06:43.062Z,17.30
2022-10-25T17:08:45.268Z,17.20
2022-10-25T17:10:47.432Z,17.20
2022-10-25T17:12:55.492Z,17.20
2022-10-25T17:14:57.362Z,17.20
2022-10-25T17:17:02.387Z,17.20
2022-10-25T17:19:05.326Z,17.10
2022-10-25T17:21:10.168Z,17.10
2022-10-25T17:23:12.952Z,17.00
2022-10-25T17:25:14.976Z,17.00
2022-10-25T17:27:16.997Z,17.00
2022-10-25T17:29:18.906Z,17.00
2022-10-25T17:31:20.767Z,16.90
2022-10-25T17:33:23.731Z,16.90
2022-10-25T17:35:29.658Z,16.90
2022-10-25T17:37:35.212Z,16.90
2022-10-25T17:39:36.973Z,16.80
2022-10-25T17:41:39.844Z,16.80
2022-10-25T17:43:42.279Z,16.80
2022-10-25T17:45:44.769Z,16.70
2022-10-25T17:47:46.935Z,16.70
2022-10-25T17:49:48.933Z,16.70
2022-10-25T17:51:50.792Z,16.60
2022-10-25T17:53:54.282Z,16.60
2022-10-25T17:55:58.717Z,16.60
2022-10-25T17:58:00.727Z,16.60
2022-10-25T18:00:09.864Z,16.50
2022-10-25T18:02:14.571Z,16.50
2022-10-25T18:04:16.634Z,16.50
2022-10-25T18:08:27.907Z,16.50
2022-10-25T18:10:34.017Z,16.50
2022-10-25T18:12:36.937Z,16.40
2022-10-25T18:14:39.324Z,16.40
2022-10-25T18:16:41.968Z,16.40
2022-10-25T18:18:44.099Z,16.40
2022-10-25T18:20:51.450Z,16.30
2022-10-25T18:22:55.407Z,16.40
2022-10-25T18:24:57.146Z,16.30
2022-10-25T18:26:59.389Z,16.30
2022-10-25T18:29:01.811Z,16.30
2022-10-25T18:31:09.946Z,16.30
2022-10-25T18:33:14.545Z,16.30
2022-10-25T18:35:16.506Z,16.20
2022-10-25T18:37:18.378Z,16.20
2022-10-25T18:39:24.083Z,16.20
2022-10-25T18:41:31.679Z,16.20
2022-10-25T18:43:33.472Z,16.20
2022-10-25T18:45:37.394Z,16.10
2022-10-25T18:47:40.933Z,16.10
2022-10-25T18:49:43.047Z,16.10
2022-10-25T18:51:45.064Z,16.10
2022-10-25T18:53:47.029Z,16.10
2022-10-25T18:55:53.011Z,16.10
2022-10-25T18:57:57.857Z,16.10
2022-10-25T18:59:59.727Z,16.00
2022-10-25T19:02:01.977Z,16.00
2022-10-25T19:04:04.224Z,16.00
2022-10-25T19:06:07.325Z,15.90
2022-10-25T19:08:11.362Z,15.90
2022-10-25T19:10:13.538Z,15.90
2022-10-25T19:12:15.370Z,15.90
2022-10-25T19:14:17.091Z,15.90
2022-10-25T19:16:18.853Z,15.90
2022-10-25T19:18:23.205Z,15.90
2022-10-25T19:20:26.935Z,15.80
2022-10-25T19:22:32.338Z,15.80
2022-10-25T19:24:35.696Z,15.80
2022-10-25T19:26:38.389Z,15.80
2022-10-25T19:28:40.301Z,15.80
2022-10-25T19:30:44.796Z,15.80
2022-10-25T19:32:50.840Z,15.80
2022-10-25T19:34:52.829Z,15.80
2022-10-25T19:39:13.811Z,15.80
2022-10-25T19:41:19.733Z,15.80
2022-10-25T19:43:21.909Z,15.80
2022-10-25T19:45:25.211Z,15.80
2022-10-25T19:47:28.183Z,15.80
2022-10-25T19:49:29.912Z,15.80
2022-10-25T19:51:36.007Z,15.80
2022-10-25T19:53:39.055Z,15.80
2022-10-25T19:55:40.940Z,15.80
2022-10-25T19:57:43.005Z,15.80
2022-10-25T19:59:45.107Z,15.80
2022-10-25T20:01:48.755Z,15.80
2022-10-25T20:03:55.046Z,15.80
2022-10-25T20:05:59.165Z,15.80
2022-10-25T20:08:01.152Z,15.80
2022-10-25T20:10:03.275Z,15.80
2022-10-25T20:12:06.181Z,15.80
2022-10-25T20:14:09.270Z,15.80
2022-10-25T20:16:11.302Z,15.80
2022-10-25T20:18:13.651Z,15.80
2022-10-25T20:20:15.739Z,15.80
2022-10-25T20:22:18.039Z,15.80
2022-10-25T20:24:20.757Z,15.70
2022-10-25T20:26:31.458Z,15.70
2022-10-25T20:28:33.480Z,15.70
2022-10-25T20:30:39.010Z,15.70
2022-10-25T20:32:43.490Z,15.70
2022-10-25T20:34:46.315Z,15.70
2022-10-25T20:36:48.878Z,15.70
2022-10-25T20:38:50.893Z,15.70
2022-10-25T20:40:52.712Z,15.70
2022-10-25T20:42:55.554Z,15.70
2022-10-25T20:44:58.026Z,15.70
2022-10-25T20:47:00.358Z,15.70
2022-10-25T20:49:03.517Z,15.70
2022-10-25T20:51:07.814Z,15.80
2022-10-25T20:53:12.066Z,15.70
2022-10-25T20:55:14.326Z,15.70
2022-10-25T20:57:19.088Z,15.70
2022-10-25T20:59:20.914Z,15.80
2022-10-25T21:01:22.785Z,15.70
2022-10-25T21:03:26.021Z,15.70
2022-10-25T21:05:28.093Z,15.70
2022-10-25T21:07:32.237Z,15.70
2022-10-25T21:09:35.241Z,15.80
2022-10-25T21:11:39.890Z,15.70
2022-10-25T21:13:42.047Z,15.70
2022-10-25T21:15:48.500Z,15.70
2022-10-25T21:17:51.103Z,15.70
2022-10-25T21:19:55.468Z,15.70
2022-10-25T21:21:57.286Z,15.70
2022-10-25T21:23:59.533Z,15.70
2022-10-25T21:26:06.608Z,15.70
2022-10-25T21:28:08.387Z,15.70
2022-10-25T21:30:10.662Z,15.80
2022-10-25T21:32:12.769Z,15.70
2022-10-25T21:34:14.645Z,15.70
2022-10-25T21:36:17.248Z,15.70
2022-10-25T21:38:19.049Z,15.70
2022-10-25T21:40:21.101Z,15.70
2022-10-25T21:42:23.158Z,15.70
2022-10-25T21:44:25.684Z,15.70
2022-10-25T21:46:28.435Z,15.70
2022-10-25T21:48:30.515Z,15.70
2022-10-25T21:50:32.478Z,15.70
2022-10-25T21:52:34.477Z,15.70
2022-10-25T21:54:36.222Z,15.70
2022-10-25T21:56:37.968Z,15.70
2022-10-25T21:58:41.298Z,15.70
2022-10-25T22:00:44.913Z,15.60
2022-10-25T22:02:46.684Z,15.70
2022-10-25T22:04:48.380Z,15.70
2022-10-25T22:06:50.689Z,15.70
2022-10-25T22:08:53.718Z,15.70
2022-10-25T22:11:00.720Z,15.70
2022-10-25T22:13:02.567Z,15.70
2022-10-25T22:15:04.755Z,15.70
2022-10-25T22:17:07.277Z,15.70
2022-10-25T22:19:16.671Z,15.70
2022-10-25T22:21:20.070Z,15.70
2022-10-25T22:23:22.576Z,15.70
2022-10-25T22:25:24.372Z,15.70
2022-10-25T22:27:26.106Z,15.70
2022-10-25T22:29:28.025Z,15.70
2022-10-25T22:31:36.586Z,15.80
2022-10-25T22:33:39.344Z,15.70
2022-10-25T22:35:41.326Z,15.80
2022-10-25T22:37:43.155Z,15.70
2022-10-25T22:39:44.925Z,15.80
2022-10-25T22:41:51.275Z,15.70
2022-10-25T22:43:53.484Z,15.80
2022-10-25T22:45:56.111Z,15.80
2022-10-25T22:47:57.808Z,15.80
2022-10-25T22:49:59.566Z,15.80
2022-10-25T22:52:01.382Z,15.80
2022-10-25T22:54:03.774Z,15.80
2022-10-25T22:56:14.231Z,15.80
2022-10-25T22:58:16.261Z,15.90
2022-10-25T23:00:18.141Z,15.90
2022-10-25T23:02:19.866Z,15.90
2022-10-25T23:04:21.915Z,15.80
2022-10-25T23:06:29.248Z,15.90
2022-10-25T23:08:34.690Z,15.90
2022-10-25T23:10:36.441Z,15.90
2022-10-25T23:12:38.317Z,15.90
2022-10-25T23:14:40.799Z,15.90
2022-10-25T23:16:42.707Z,15.90
2022-10-25T23:18:45.100Z,15.90
2022-10-25T23:20:50.817Z,15.90
2022-10-25T23:22:52.627Z,16.00
2022-10-25T23:24:54.651Z,16.00
2022-10-25T23:26:56.515Z,16.00
2022-10-25T23:28:58.912Z,16.00
2022-10-25T23:31:09.028Z,16.10
2022-10-25T23:33:12.393Z,16.10
2022-10-25T23:35:14.170Z,16.10
2022-10-25T23:37:16.585Z,16.10
2022-10-25T23:39:21.118Z,16.10
2022-10-25T23:41:23.534Z,16.10
2022-10-25T23:43:28.227Z,16.10
2022-10-25T23:45:32.161Z,16.20
2022-10-25T23:47:34.920Z,16.20
2022-10-25T23:49:36.649Z,16.20
2022-10-25T23:51:38.482Z,16.20
2022-10-25T23:53:40.928Z,16.20
2022-10-25T23:55:42.799Z,16.30
2022-10-25T23:57:44.786Z,16.30
2022-10-25T23:59:46.577Z,16.30
